Lavenham, United Kingdom
Current Conditions -  °F | °C
As of 11:50 AM on Friday 28 Nov 2014 (Local Time) from EGUW Reporting Station
Haze Haze  
Wind Chill: 52°   Ceiling: 700
Heat Index: 52°   Visibility: 5mi
Dew Point: 48°   Wind: 12mph
Humidity: 88%   Direction: 90°E
Pressure: 29.65"   Gusts: NA
Location:  52.11°N, 0.8°E
Report Text: EGUW 281150Z 09010KT 8000 HZ BKN007 11/09 Q1004 GRN TEMPO BKN024 WHT
Loading
Personal Weather Stations






























Interactive Weather Map New forecast layout! Learn more

10-Day Weather Forecast

Advertisements
Track Severe Weather on mobile